Time;durP1;ratioP1;P1;durP2;ratioP2;P2;SDS_P1;SDS_P2;PMS_P1;PMS_P2;Temp;Humidity;BMP_temperature;BMP_pressure;BME280_temperature;BME280_humidity;BME280_pressure;Samples;Min_cycle;Max_cycle;Signal;HPM_P1;HPM_P2
2023/10/28 00:00:19;;;;;;;39.08;10.85;;;;;;;24.57;57.28;98306.80;1711212;84;21777;-82
2023/10/28 00:03:24;;;;;;;40.75;11.05;;;;;;;24.86;56.95;98297.97;1704376;84;22254;-83
2023/10/28 00:06:30;;;;;;;39.45;10.40;;;;;;;25.08;56.65;98299.95;1744198;81;21302;-86
2023/10/28 00:09:37;;;;;;;30.95;10.40;;;;;;;25.49;55.41;98298.24;1709841;84;21314;-86
2023/10/28 00:12:43;;;;;;;36.33;9.50;;;;;;;24.92;57.08;98295.86;1710249;84;21298;-83
2023/10/28 00:15:49;;;;;;;31.07;10.68;;;;;;;24.53;59.07;98286.80;1704233;84;21345;-82
2023/10/28 00:18:54;;;;;;;37.95;11.12;;;;;;;24.42;59.58;98280.64;1744700;82;21267;-84
2023/10/28 00:21:59;;;;;;;28.87;9.75;;;;;;;24.56;59.41;98273.02;1711014;84;21303;-84
2023/10/28 00:25:05;;;;;;;31.05;9.88;;;;;;;24.69;59.05;98270.70;1711145;84;21264;-84
2023/10/28 00:28:11;;;;;;;27.37;8.73;;;;;;;25.32;57.86;98265.19;1704260;84;21332;-81
2023/10/28 00:31:21;;;;;;;42.80;10.15;;;;;;;25.80;56.21;98262.41;1744520;81;21841;-85
2023/10/28 00:34:29;;;;;;;33.67;10.45;;;;;;;25.85;56.36;98254.43;1726111;82;21251;-82
2023/10/28 00:37:35;;;;;;;36.38;8.98;;;;;;;25.32;57.61;98252.59;1744615;81;21868;-85
2023/10/28 00:40:41;;;;;;;34.18;11.10;;;;;;;26.20;55.38;98240.69;1744582;81;21271;-82
2023/10/28 00:43:48;;;;;;;36.48;9.98;;;;;;;26.32;54.73;98247.64;1711217;84;21862;-82
2023/10/28 00:46:54;;;;;;;34.58;10.28;;;;;;;26.17;55.51;98240.55;1710463;84;21303;-85
2023/10/28 00:49:52;;;;;;;31.45;9.90;;;;;;;25.99;55.83;98229.91;1704283;84;21299;-83
2023/10/28 00:53:02;;;;;;;40.45;10.00;;;;;;;26.24;55.64;98224.87;1743220;81;21310;-83
2023/10/28 00:56:06;;;;;;;41.42;10.80;;;;;;;25.83;56.06;98215.56;1710982;84;21351;-82
2023/10/28 00:59:13;;;;;;;37.73;10.82;;;;;;;25.71;56.39;98211.95;1710212;84;21366;-82
2023/10/28 01:02:19;;;;;;;45.33;11.33;;;;;;;25.98;55.77;98204.45;1702961;84;22473;-83
2023/10/28 01:05:25;;;;;;;32.60;10.50;;;;;;;25.83;56.27;98197.91;1744542;82;21255;-82
2023/10/28 01:08:31;;;;;;;31.23;10.18;;;;;;;26.12;55.79;98188.89;1711102;84;21292;-82
2023/10/28 01:11:42;;;;;;;30.77;10.45;;;;;;;26.60;54.36;98189.27;1711094;84;21303;-82
2023/10/28 01:14:50;;;;;;;35.43;10.63;;;;;;;26.67;54.00;98189.57;1704251;84;21316;-81
2023/10/28 01:17:57;;;;;;;36.98;10.78;;;;;;;26.41;54.51;98177.81;1744644;81;21330;-82
2023/10/28 01:21:02;;;;;;;36.05;11.33;;;;;;;26.07;56.24;98177.27;1711136;84;21311;-83
2023/10/28 01:24:07;;;;;;;41.40;10.53;;;;;;;25.17;58.42;98165.16;1711119;84;21300;-83
2023/10/28 01:27:12;;;;;;;47.43;11.55;;;;;;;25.30;58.17;98162.55;1704235;84;21292;-81
2023/10/28 01:30:19;;;;;;;42.78;10.63;;;;;;;25.49;57.65;98154.11;1744637;82;21306;-82
2023/10/28 01:33:25;;;;;;;38.25;11.33;;;;;;;25.90;56.73;98153.45;1711102;84;21267;-83
2023/10/28 01:36:31;;;;;;;31.68;9.68;;;;;;;25.95;56.27;98158.89;1711165;84;21303;-83
2023/10/28 01:39:38;;;;;;;35.80;11.28;;;;;;;25.45;58.03;98141.95;1699481;84;21321;-82
2023/10/28 01:42:46;;;;;;;38.98;11.30;;;;;;;25.32;58.65;98136.48;1669880;85;21317;-83
2023/10/28 01:45:51;;;;;;;40.52;11.50;;;;;;;25.96;56.64;98129.72;1677294;85;21854;-83
2023/10/28 01:48:57;;;;;;;53.70;11.97;;;;;;;26.39;55.67;98121.25;1682430;85;21336;-83
2023/10/28 01:52:03;;;;;;;50.35;12.58;;;;;;;26.72;54.43;98113.13;1677230;85;21328;-83
2023/10/28 01:55:09;;;;;;;45.55;11.88;;;;;;;26.41;55.71;98113.94;1682410;85;21300;-83
2023/10/28 01:58:14;;;;;;;46.18;11.57;;;;;;;26.12;55.81;98119.67;1676957;85;21296;-83
2023/10/28 02:01:19;;;;;;;41.28;10.45;;;;;;;26.05;56.64;98115.72;1681992;85;21360;-83
2023/10/28 02:04:25;;;;;;;62.67;11.53;;;;;;;26.29;55.96;98107.59;1677065;85;21893;-82
2023/10/28 02:07:31;;;;;;;50.85;10.50;;;;;;;25.99;56.64;98101.89;1676710;85;21328;-84
2023/10/28 02:10:36;;;;;;;46.53;12.53;;;;;;;27.03;54.02;98104.16;1674565;85;21293;-85
2023/10/28 02:13:41;;;;;;;43.98;10.40;;;;;;;25.95;56.54;98100.08;1674367;85;21862;-83
2023/10/28 02:16:48;;;;;;;43.48;11.20;;;;;;;25.77;57.06;98095.64;1673865;85;21317;-85
2023/10/28 02:19:55;;;;;;;37.63;10.30;;;;;;;25.81;57.10;98095.23;1674428;85;21293;-80
2023/10/28 02:23:04;;;;;;;59.03;12.28;;;;;;;26.21;55.86;98092.47;1673255;85;21320;-85
2023/10/28 02:26:09;;;;;;;50.48;11.45;;;;;;;26.02;56.55;98099.02;1674334;85;21360;-84
2023/10/28 02:29:15;;;;;;;35.75;9.68;;;;;;;26.15;56.10;98106.38;1673673;85;21380;-80
2023/10/28 02:32:20;;;;;;;42.33;10.03;;;;;;;26.00;56.31;98102.13;1673329;85;21336;-84
2023/10/28 02:35:26;;;;;;;44.50;10.63;;;;;;;26.21;56.09;98109.28;1674591;85;21309;-85
2023/10/28 02:38:33;;;;;;;45.45;10.63;;;;;;;26.72;54.42;98106.13;1674086;85;21325;-84
2023/10/28 02:41:39;;;;;;;44.15;10.23;;;;;;;26.28;55.64;98100.94;1692643;83;21324;-80
2023/10/28 02:44:46;;;;;;;43.38;9.48;;;;;;;26.08;56.17;98090.67;1708442;84;22758;-81
2023/10/28 02:47:51;;;;;;;47.08;9.60;;;;;;;26.25;55.67;98082.25;1707241;83;21312;-84
2023/10/28 02:50:56;;;;;;;39.38;10.60;;;;;;;26.13;55.84;98082.67;1708633;83;21316;-80
2023/10/28 02:54:03;;;;;;;56.75;10.65;;;;;;;26.33;55.45;98072.73;1708528;84;21324;-84
2023/10/28 02:57:08;;;;;;;40.58;9.20;;;;;;;26.14;55.93;98060.50;1707806;83;21328;-84
2023/10/28 03:00:14;;;;;;;42.10;9.93;;;;;;;25.95;56.26;98053.29;1707348;84;21312;-80
2023/10/28 03:03:20;;;;;;;37.83;8.55;;;;;;;26.23;55.51;98043.91;1708747;84;21285;-80
2023/10/28 03:06:26;;;;;;;36.68;9.35;;;;;;;25.90;56.26;98028.27;1708773;83;21403;-80
2023/10/28 03:09:32;;;;;;;40.23;9.85;;;;;;;26.15;55.50;98012.53;1707907;84;21332;-79
2023/10/28 03:12:37;;;;;;;23.02;8.35;;;;;;;26.53;54.49;97996.93;1708642;83;21316;-80
2023/10/28 03:15:46;;;;;;;47.95;10.58;;;;;;;26.21;55.24;98005.62;1708601;83;21308;-80
2023/10/28 03:18:52;;;;;;;39.42;9.25;;;;;;;26.17;55.50;97994.83;1708743;84;21280;-82
2023/10/28 03:21:56;;;;;;;36.42;9.38;;;;;;;26.14;55.43;97978.69;1708559;83;21320;-80
2023/10/28 03:25:03;;;;;;;33.38;9.13;;;;;;;25.90;55.80;97964.43;1708618;84;21312;-81
2023/10/28 03:28:09;;;;;;;39.00;9.53;;;;;;;25.68;56.68;97948.05;1708722;84;21285;-81
2023/10/28 03:31:18;;;;;;;35.48;11.93;;;;;;;25.47;57.19;97951.31;1708568;83;21331;-82
2023/10/28 03:34:24;;;;;;;42.80;12.07;;;;;;;25.39;57.51;97952.96;1708950;84;21323;-80
2023/10/28 03:37:31;;;;;;;28.77;9.73;;;;;;;25.60;57.28;97946.70;1708480;83;21565;-81
2023/10/28 03:40:37;;;;;;;34.90;9.38;;;;;;;25.95;56.11;97943.25;1708666;84;21265;-81
2023/10/28 03:43:43;;;;;;;51.02;10.13;;;;;;;26.14;55.38;97943.67;1676675;84;21332;-81
2023/10/28 03:46:50;;;;;;;43.05;9.45;;;;;;;26.33;54.86;97926.44;1674850;85;21328;-81
2023/10/28 03:49:54;;;;;;;37.05;9.95;;;;;;;26.25;54.93;97927.30;1704102;84;21851;-82
2023/10/28 03:53:02;;;;;;;33.23;8.95;;;;;;;26.10;55.31;97929.27;1674647;85;21317;-82
2023/10/28 03:56:09;;;;;;;35.83;8.73;;;;;;;25.94;55.55;97942.43;1674533;85;21843;-82
2023/10/28 03:59:15;;;;;;;33.48;8.18;;;;;;;26.00;55.56;97940.27;1674631;85;21914;-82
2023/10/28 04:02:20;;;;;;;37.93;8.50;;;;;;;25.85;55.58;97938.83;1674499;85;21312;-82
2023/10/28 04:05:26;;;;;;;30.37;8.55;;;;;;;26.03;55.31;97933.19;1674442;85;21297;-82
2023/10/28 04:08:32;;;;;;;42.35;8.45;;;;;;;26.04;55.46;97935.64;1706406;84;21340;-82
2023/10/28 04:11:38;;;;;;;40.65;9.63;;;;;;;26.10;55.36;97939.89;1674437;85;21933;-81
2023/10/28 04:14:45;;;;;;;40.60;9.10;;;;;;;25.86;56.01;97953.07;1706465;84;21304;-82
2023/10/28 04:17:51;;;;;;;32.98;8.80;;;;;;;25.72;56.57;97965.02;1674695;85;21301;-82
2023/10/28 04:20:56;;;;;;;38.55;10.70;;;;;;;25.74;56.43;97969.14;1674770;85;21313;-82
2023/10/28 04:24:01;;;;;;;48.35;10.10;;;;;;;25.97;55.77;97964.73;1674738;85;22280;-82
2023/10/28 04:27:06;;;;;;;46.35;10.23;;;;;;;26.18;55.09;97969.04;1686428;84;21339;-82
2023/10/28 04:30:14;;;;;;;41.68;10.03;;;;;;;25.99;55.68;97967.45;1705781;84;21364;-82
2023/10/28 04:33:21;;;;;;;43.28;9.18;;;;;;;25.95;56.20;97964.25;1673093;85;21367;-83
2023/10/28 04:36:26;;;;;;;29.37;9.53;;;;;;;25.95;56.17;97981.87;1689135;83;21324;-82
2023/10/28 04:39:32;;;;;;;39.13;8.78;;;;;;;25.87;56.42;97971.51;1674187;86;21870;-82
2023/10/28 04:42:38;;;;;;;43.70;9.83;;;;;;;25.86;56.57;97968.47;1673462;85;21913;-81
2023/10/28 04:45:43;;;;;;;39.78;9.38;;;;;;;26.15;55.82;97971.92;1682466;85;21838;-82
2023/10/28 04:48:50;;;;;;;41.23;9.08;;;;;;;26.20;55.33;97976.52;1744635;82;21310;-82
2023/10/28 04:51:56;;;;;;;43.42;9.85;;;;;;;25.65;56.79;97982.33;1743990;81;21294;-82
2023/10/28 04:55:04;;;;;;;46.08;10.08;;;;;;;25.88;56.49;97979.36;1744627;82;21291;-82
2023/10/28 04:58:10;;;;;;;41.40;9.13;;;;;;;25.82;56.55;97973.67;1711103;84;21893;-82
2023/10/28 05:01:15;;;;;;;41.35;9.05;;;;;;;25.62;57.17;97973.19;1710843;84;21307;-82
2023/10/28 05:04:20;;;;;;;40.43;9.23;;;;;;;25.66;57.09;97984.55;1704271;84;21842;-82
2023/10/28 05:07:27;;;;;;;40.95;9.88;;;;;;;26.30;55.09;97980.92;1744549;81;21346;-83
2023/10/28 05:10:34;;;;;;;51.20;10.55;;;;;;;26.63;54.12;97965.70;1744633;82;21295;-82
2023/10/28 05:13:40;;;;;;;48.48;9.38;;;;;;;26.68;54.24;97978.16;1711212;84;21897;-82
2023/10/28 05:16:45;;;;;;;47.70;9.80;;;;;;;26.68;53.97;97985.17;1711035;84;21308;-83
2023/10/28 05:19:51;;;;;;;34.90;8.93;;;;;;;26.61;54.31;97993.27;1704336;84;21312;-82
2023/10/28 05:22:57;;;;;;;48.55;8.73;;;;;;;26.73;53.73;97985.78;1736435;82;21316;-83
2023/10/28 05:25:56;;;;;;;48.42;10.05;;;;;;;26.57;54.10;97987.51;1736415;82;21374;-83
2023/10/28 05:28:51;;;;;;;45.80;10.65;;;;;;;26.77;53.56;97991.52;1736536;82;21288;-83
2023/10/28 05:31:58;;;;;;;36.25;8.25;;;;;;;26.44;54.35;97995.56;1735687;82;21304;-83
2023/10/28 05:35:04;;;;;;;47.85;9.43;;;;;;;26.20;54.94;98005.93;1736467;82;21300;-83
2023/10/28 05:38:11;;;;;;;35.73;8.60;;;;;;;26.47;54.31;98008.33;1736416;82;21280;-82
2023/10/28 05:41:16;;;;;;;38.15;9.25;;;;;;;26.45;54.27;98012.65;1736252;82;21299;-83
2023/10/28 05:44:22;;;;;;;30.77;7.85;;;;;;;26.14;55.14;98008.09;1734266;82;21316;-83
2023/10/28 05:47:28;;;;;;;35.15;7.95;;;;;;;26.19;55.07;98006.52;1733866;83;21288;-83
2023/10/28 05:50:33;;;;;;;28.10;7.28;;;;;;;26.41;54.63;97999.03;1736250;82;21307;-83
2023/10/28 05:53:38;;;;;;;31.55;7.67;;;;;;;26.52;54.06;98003.12;1736198;82;21818;-83
2023/10/28 05:56:46;;;;;;;35.00;8.58;;;;;;;26.39;53.93;98024.56;1735544;82;21299;-83
2023/10/28 05:59:53;;;;;;;35.98;8.35;;;;;;;26.77;53.31;98008.34;1736094;82;21892;-83
2023/10/28 06:02:58;;;;;;;29.77;7.28;;;;;;;27.30;51.42;98020.92;1734666;82;21318;-84
2023/10/28 06:06:05;;;;;;;30.70;6.80;;;;;;;27.13;51.40;98016.83;1734734;82;21319;-83
2023/10/28 06:09:11;;;;;;;31.70;6.50;;;;;;;27.14;51.28;98024.89;1736082;82;21872;-84
2023/10/28 06:12:17;;;;;;;20.37;5.47;;;;;;;27.31;50.20;98023.95;1735182;82;21892;-83
2023/10/28 06:15:24;;;;;;;31.87;5.53;;;;;;;27.36;49.93;98030.77;1736068;82;21314;-84
2023/10/28 06:41:35;;;;;;;17.25;3.90;;;;;;;27.31;47.67;98076.46;1738789;82;21169;-83
2023/10/28 06:44:43;;;;;;;15.75;3.15;;;;;;;27.49;46.62;98072.37;1734552;82;21303;-84
2023/10/28 06:47:50;;;;;;;14.98;3.35;;;;;;;27.43;46.53;98075.13;1743112;82;21304;-85
2023/10/28 06:50:58;;;;;;;12.07;3.08;;;;;;;27.46;46.24;98088.48;1733722;83;21295;-83
2023/10/28 06:53:58;;;;;;;12.40;3.62;;;;;;;27.54;45.65;98086.20;1730491;82;21323;-84
2023/10/28 06:57:06;;;;;;;15.53;3.72;;;;;;;27.65;45.15;98102.87;1738922;82;21298;-85
2023/10/28 07:00:15;;;;;;;15.23;3.45;;;;;;;27.48;45.43;98097.41;1719380;82;21825;-84
2023/10/28 07:03:28;;;;;;;14.33;3.72;;;;;;;27.47;45.15;98102.75;1742836;82;21557;-84
2023/10/28 07:06:34;;;;;;;14.65;3.02;;;;;;;27.79;43.93;98111.64;1734653;82;21308;-84
2023/10/28 07:09:40;;;;;;;15.18;4.33;;;;;;;28.31;43.03;98113.38;1742341;82;21323;-84
2023/10/28 07:12:49;;;;;;;9.65;2.58;;;;;;;28.72;42.11;98116.69;1746724;82;21291;-85
2023/10/28 07:15:56;;;;;;;15.53;3.45;;;;;;;28.60;41.30;98118.05;1722793;82;21267;-84
2023/10/28 07:19:03;;;;;;;9.75;2.65;;;;;;;28.18;41.95;98126.59;1740054;82;21295;-84
2023/10/28 07:22:07;;;;;;;13.85;2.90;;;;;;;28.51;41.29;98128.02;1734699;82;21295;-85
2023/10/28 07:25:14;;;;;;;13.18;2.37;;;;;;;28.46;40.67;98138.64;1736135;82;21814;-84
2023/10/28 07:28:20;;;;;;;6.03;2.08;;;;;;;28.03;40.93;98132.83;1736256;82;21279;-84
2023/10/28 07:31:27;;;;;;;7.42;1.85;;;;;;;28.08;40.75;98144.44;1736181;82;21343;-84
2023/10/28 07:34:34;;;;;;;5.12;1.70;;;;;;;28.20;40.42;98142.52;1736153;82;21313;-84
2023/10/28 07:37:44;;;;;;;9.95;3.12;;;;;;;28.05;40.21;98142.34;1746626;82;21314;-84
2023/10/28 07:40:53;;;;;;;11.83;1.55;;;;;;;28.01;40.08;98147.81;1745107;82;21856;-84
2023/10/28 07:44:00;;;;;;;5.20;1.35;;;;;;;28.00;39.89;98153.20;1738159;82;21291;-84
2023/10/28 07:47:07;;;;;;;6.62;1.40;;;;;;;27.80;39.17;98158.22;1742399;82;21291;-84
2023/10/28 07:50:19;;;;;;;4.33;1.20;;;;;;;28.12;38.18;98160.27;1746994;82;21196;-83
2023/10/28 07:53:29;;;;;;;2.40;1.20;;;;;;;28.14;37.08;98179.03;1746676;82;21235;-84
2023/10/28 07:56:35;;;;;;;5.30;1.10;;;;;;;28.31;36.64;98171.59;1746792;82;21228;-84
2023/10/28 07:59:44;;;;;;;6.00;1.20;;;;;;;28.37;36.07;98191.32;1744439;82;21275;-84
2023/10/28 08:02:56;;;;;;;3.45;1.12;;;;;;;27.76;36.39;98187.59;1744079;82;21339;-84
2023/10/28 08:06:03;;;;;;;4.35;0.90;;;;;;;27.49;36.47;98205.72;1744024;82;21279;-84
2023/10/28 08:09:17;;;;;;;5.12;1.05;;;;;;;27.82;35.94;98214.89;1734165;82;21872;-83
2023/10/28 08:12:27;;;;;;;5.25;1.10;;;;;;;27.31;36.68;98214.80;1742515;82;21853;-83
2023/10/28 08:15:37;;;;;;;4.40;1.00;;;;;;;27.96;36.54;98221.89;1740579;82;21272;-83
2023/10/28 08:18:53;;;;;;;3.62;0.90;;;;;;;27.96;35.48;98223.88;1730565;82;21259;-84
2023/10/28 08:21:56;;;;;;;3.08;0.50;;;;;;;27.81;33.94;98231.47;1739101;82;21844;-84
2023/10/28 08:25:04;;;;;;;2.67;0.42;;;;;;;27.86;32.54;98229.91;1744340;82;21172;-84
2023/10/28 08:28:10;;;;;;;4.22;0.60;;;;;;;27.59;33.31;98270.48;1744152;82;21280;-84
2023/10/28 08:31:17;;;;;;;3.50;0.60;;;;;;;27.65;33.74;98261.52;1744072;82;21295;-84
2023/10/28 08:34:27;;;;;;;1.37;0.60;;;;;;;27.70;34.27;98273.97;1743131;82;21900;-84
2023/10/28 08:37:39;;;;;;;1.52;0.57;;;;;;;27.32;34.30;98259.95;1743223;82;21282;-84
2023/10/28 08:40:50;;;;;;;0.53;0.42;;;;;;;27.08;33.76;98260.52;1746807;82;21188;-84
2023/10/28 08:43:56;;;;;;;3.87;0.40;;;;;;;26.99;34.87;98267.52;1725861;82;21204;-84
2023/10/28 08:47:08;;;;;;;1.70;0.45;;;;;;;27.10;34.42;98275.06;1743267;82;21299;-84
2023/10/28 08:50:17;;;;;;;0.95;0.30;;;;;;;26.85;34.33;98275.89;1735138;82;21287;-85
2023/10/28 08:53:25;;;;;;;2.92;0.50;;;;;;;26.72;34.01;98282.78;1746447;82;21319;-83
2023/10/28 08:56:35;;;;;;;1.00;0.50;;;;;;;27.15;33.78;98278.27;1742507;82;21228;-83
2023/10/28 08:59:42;;;;;;;1.27;0.60;;;;;;;26.95;32.79;98289.56;1746778;82;21223;-83
2023/10/28 09:02:52;;;;;;;3.05;0.40;;;;;;;26.96;32.00;98294.01;1741777;82;21355;-84
2023/10/28 09:06:02;;;;;;;3.80;0.45;;;;;;;26.91;32.45;98288.02;1736236;82;21307;-83
2023/10/28 09:09:20;;;;;;;4.37;0.55;;;;;;;26.61;32.83;98295.47;1736316;82;21741;-85
2023/10/28 09:12:26;;;;;;;5.97;0.50;;;;;;;26.87;33.12;98288.44;1733785;83;21304;-84
2023/10/28 09:15:42;;;;;;;1.07;0.50;;;;;;;26.90;33.17;98285.53;1728196;83;21280;-84
2023/10/28 09:18:54;;;;;;;3.05;0.68;;;;;;;27.38;32.69;98285.84;1726847;83;21276;-84
2023/10/28 09:22:06;;;;;;;2.15;0.72;;;;;;;27.69;33.29;98305.20;1734718;82;21272;-84
2023/10/28 09:25:21;;;;;;;3.25;1.00;;;;;;;27.93;32.69;98308.83;1721592;82;21176;-84
2023/10/28 09:28:30;;;;;;;4.90;0.50;;;;;;;27.70;30.89;98318.90;1736251;82;21307;-84
2023/10/28 09:31:37;;;;;;;3.47;0.70;;;;;;;27.48;28.90;98311.58;1744675;82;21307;-84
2023/10/28 09:34:52;;;;;;;26.65;0.93;;;;;;;27.68;29.23;98331.65;1730951;82;21316;-84
2023/10/28 09:38:01;;;;;;;5.47;0.85;;;;;;;27.72;29.35;98336.29;1735500;82;21260;-83
2023/10/28 09:41:13;;;;;;;7.75;0.70;;;;;;;27.54;30.28;98347.31;1738314;82;21315;-84
2023/10/28 09:44:21;;;;;;;10.53;0.85;;;;;;;27.63;30.50;98346.70;1737878;82;21185;-84
2023/10/28 09:47:37;;;;;;;6.47;1.25;;;;;;;27.49;29.94;98351.70;1736262;82;21311;-83
2023/10/28 09:50:44;;;;;;;2.87;0.60;;;;;;;27.41;30.20;98352.55;1736266;82;21276;-83
2023/10/28 09:54:01;;;;;;;1.95;0.50;;;;;;;27.12;30.08;98351.30;1734362;82;21303;-83
2023/10/28 09:57:14;;;;;;;3.42;0.70;;;;;;;27.08;30.10;98357.87;1733748;83;21727;-84
2023/10/28 10:00:25;;;;;;;2.42;0.50;;;;;;;27.23;30.76;98381.23;1736198;82;21837;-83
2023/10/28 10:04:06;;;;;;;3.77;0.50;;;;;;;26.87;29.56;98366.98;1734344;82;21291;-83
2023/10/28 10:07:16;;;;;;;1.57;0.57;;;;;;;27.02;29.38;98386.68;1739797;82;21291;-84
2023/10/28 10:10:26;;;;;;;3.93;0.80;;;;;;;26.97;28.67;98382.64;1743948;82;21290;-83
2023/10/28 10:13:33;;;;;;;0.70;0.33;;;;;;;26.53;30.18;98391.59;1719639;82;21284;-84
2023/10/28 10:50:49;;;;;;;4.95;0.75;;;;;;;22.49;36.29;98444.88;1764812;79;28245;-84
2023/10/28 10:53:56;;;;;;;9.48;1.12;;;;;;;22.76;35.36;98459.52;1754715;80;21289;-83
2023/10/28 11:00:39;;;;;;;6.83;0.78;;;;;;;22.28;36.68;98467.14;1753686;80;21338;-82
2023/10/28 11:03:45;;;;;;;3.83;0.88;;;;;;;21.98;36.96;98463.57;1754662;80;21340;-82
2023/10/28 11:06:51;;;;;;;5.62;1.17;;;;;;;22.04;37.52;98479.64;1755088;82;21281;-83
2023/10/28 11:09:58;;;;;;;8.18;1.00;;;;;;;22.45;36.51;98471.66;1733476;82;21314;-83
2023/10/28 11:13:05;;;;;;;5.87;0.93;;;;;;;22.90;35.62;98481.92;1754907;82;21274;-83
2023/10/28 11:16:12;;;;;;;2.42;0.90;;;;;;;21.58;37.46;98479.55;1754969;82;21818;-83
2023/10/28 12:25:17;;;;;;;3.47;1.15;;;;;;;24.95;31.94;98574.88;1786529;79;21295;-81
2023/10/28 12:28:24;;;;;;;3.02;0.85;;;;;;;24.36;32.76;98581.64;1778381;79;21359;-82
2023/10/28 12:31:32;;;;;;;8.93;1.40;;;;;;;24.23;32.81;98579.66;1786718;79;21362;-82
2023/10/28 12:34:38;;;;;;;12.53;1.47;;;;;;;23.93;33.18;98579.62;1779068;79;21326;-82
2023/10/28 12:37:44;;;;;;;9.58;1.37;;;;;;;24.12;32.90;98577.59;1769622;79;22105;-82
2023/10/28 12:40:50;;;;;;;7.12;1.35;;;;;;;23.97;33.58;98590.44;1812012;78;21339;-81
2023/10/28 12:43:55;;;;;;;6.47;1.85;;;;;;;24.17;33.40;98600.41;1781060;79;21936;-82
2023/10/28 12:47:02;;;;;;;2.65;0.80;;;;;;;23.86;34.01;98602.36;1807648;78;21295;-82
2023/10/28 12:50:12;;;;;;;3.35;1.00;;;;;;;23.85;34.15;98608.23;1812083;78;21680;-82
2023/10/28 12:53:17;;;;;;;2.37;0.60;;;;;;;24.08;33.50;98622.63;1821042;78;21331;-82
2023/10/28 12:56:24;;;;;;;2.35;0.95;;;;;;;23.90;32.69;98616.52;1794778;78;21857;-82
2023/10/28 12:59:31;;;;;;;6.03;0.70;;;;;;;24.16;32.39;98612.16;1809646;78;21881;-82
2023/10/28 13:02:37;;;;;;;1.82;0.70;;;;;;;23.80;33.27;98623.09;1813894;78;21921;-82
2023/10/28 13:05:43;;;;;;;4.55;1.02;;;;;;;24.05;33.33;98626.05;1812034;78;21358;-82
2023/10/28 13:08:49;;;;;;;10.25;1.00;;;;;;;23.78;33.42;98635.14;1761306;78;21354;-82
2023/10/28 13:11:56;;;;;;;6.55;1.10;;;;;;;24.10;33.01;98632.95;1746554;81;21314;-81
2023/10/28 13:15:03;;;;;;;9.70;1.27;;;;;;;23.92;33.23;98646.38;1743805;81;21904;-82
2023/10/28 13:18:11;;;;;;;5.17;0.98;;;;;;;24.03;33.56;98652.61;1766443;80;21315;-81
2023/10/28 13:21:16;;;;;;;3.10;1.12;;;;;;;23.75;33.96;98662.26;1757304;81;21332;-81
2023/10/28 13:24:23;;;;;;;3.75;1.10;;;;;;;24.13;33.51;98656.62;1747337;81;21909;-81
2023/10/28 13:27:28;;;;;;;7.37;1.25;;;;;;;24.31;33.27;98666.09;1742851;81;21355;-81
2023/10/28 13:30:33;;;;;;;4.55;0.88;;;;;;;24.39;33.00;98668.23;1743212;81;21869;-81
2023/10/28 13:33:40;;;;;;;11.73;1.00;;;;;;;24.51;32.82;98676.10;1742478;81;21335;-81
2023/10/28 13:36:45;;;;;;;4.08;1.27;;;;;;;24.00;33.62;98684.78;1752872;81;21359;-81
2023/10/28 13:39:52;;;;;;;8.98;1.20;;;;;;;24.07;33.77;98692.19;1735677;81;21338;-81
2023/10/28 13:42:57;;;;;;;7.15;1.20;;;;;;;24.53;33.25;98697.03;1748178;81;21379;-81
2023/10/28 13:46:07;;;;;;;3.25;1.00;;;;;;;24.35;33.55;98711.85;1746972;81;21332;-81
2023/10/28 13:49:14;;;;;;;3.70;1.10;;;;;;;24.13;34.00;98727.84;1707612;83;22528;-81
2023/10/28 13:52:19;;;;;;;3.05;0.80;;;;;;;24.09;34.01;98733.23;1714422;83;21357;-81
2023/10/28 13:55:26;;;;;;;12.03;1.10;;;;;;;24.23;33.25;98732.72;1712858;83;21416;-81
2023/10/28 13:58:33;;;;;;;3.98;0.93;;;;;;;24.04;33.06;98745.84;1725622;82;21347;-81
2023/10/28 14:01:41;;;;;;;2.87;0.90;;;;;;;23.87;32.98;98756.73;1760814;80;21315;-81
2023/10/28 14:04:48;;;;;;;7.97;1.40;;;;;;;24.07;32.97;98767.59;1745503;81;21915;-81
2023/10/28 14:07:55;;;;;;;7.33;1.30;;;;;;;23.99;33.18;98785.02;1741858;80;21283;-81
2023/10/28 14:11:01;;;;;;;10.35;1.20;;;;;;;23.89;33.33;98788.80;1745429;81;22034;-81
2023/10/28 14:14:08;;;;;;;3.30;1.42;;;;;;;23.79;33.33;98790.91;1767456;80;21340;-81
2023/10/28 14:17:15;;;;;;;4.28;1.15;;;;;;;23.58;33.76;98801.48;1739181;81;21310;-81
2023/10/28 14:20:22;;;;;;;18.05;1.25;;;;;;;23.39;33.86;98812.03;1739860;81;21351;-81
2023/10/28 14:23:28;;;;;;;5.08;1.30;;;;;;;23.28;33.92;98820.80;1742032;81;22133;-82
2023/10/28 14:26:34;;;;;;;9.35;1.10;;;;;;;23.27;33.92;98826.11;1743096;81;21283;-82
2023/10/28 14:29:40;;;;;;;3.80;0.70;;;;;;;23.08;34.19;98831.03;1726449;81;21400;-81
2023/10/28 14:32:46;;;;;;;1.10;0.82;;;;;;;23.27;33.96;98832.52;1750289;81;21336;-81
2023/10/28 14:35:55;;;;;;;1.55;0.80;;;;;;;23.10;34.33;98841.36;1746850;81;21299;-81
2023/10/28 14:39:03;;;;;;;2.85;1.25;;;;;;;22.80;34.68;98852.73;1745358;81;21331;-81
2023/10/28 14:42:07;;;;;;;5.30;1.00;;;;;;;22.95;34.62;98851.23;1748980;81;21940;-81
2023/10/28 14:45:14;;;;;;;6.08;1.25;;;;;;;22.81;34.86;98859.41;1747314;81;21945;-81
2023/10/28 14:48:23;;;;;;;3.30;1.07;;;;;;;22.76;34.98;98865.59;1749977;81;21655;-81
2023/10/28 14:51:29;;;;;;;2.95;1.67;;;;;;;22.56;35.30;98874.38;1742919;81;21343;-82
2023/10/28 14:54:38;;;;;;;2.95;1.30;;;;;;;22.24;35.96;98880.44;1758627;81;21319;-81
2023/10/28 14:57:44;;;;;;;1.65;0.80;;;;;;;21.96;36.23;98886.12;1746704;81;21377;-81
2023/10/28 15:00:51;;;;;;;3.37;0.95;;;;;;;21.87;36.61;98884.48;1757051;81;21387;-81
2023/10/28 15:03:57;;;;;;;3.85;1.25;;;;;;;21.93;36.57;98884.75;1759683;81;21897;-81
2023/10/28 15:07:03;;;;;;;1.17;0.90;;;;;;;21.65;37.09;98886.81;1756542;81;21323;-81
2023/10/28 15:10:09;;;;;;;2.37;0.90;;;;;;;21.78;36.93;98901.49;1756998;81;21871;-81
2023/10/28 15:13:15;;;;;;;3.02;1.25;;;;;;;21.65;37.21;98900.73;1751077;81;21347;-81
2023/10/28 15:16:20;;;;;;;2.77;1.20;;;;;;;21.58;37.26;98903.78;1741944;81;21319;-81
2023/10/28 15:19:26;;;;;;;5.08;1.10;;;;;;;21.65;37.44;98909.91;1748274;81;21354;-81
2023/10/28 15:22:32;;;;;;;2.37;1.00;;;;;;;21.65;37.39;98909.91;1755013;81;21386;-81
2023/10/28 15:25:39;;;;;;;6.35;1.75;;;;;;;21.73;37.29;98924.34;1756184;81;21413;-81
2023/10/28 15:28:45;;;;;;;3.67;1.32;;;;;;;21.41;37.87;98936.67;1750941;81;21605;-81
2023/10/28 15:31:51;;;;;;;3.10;1.30;;;;;;;21.37;38.00;98939.73;1751544;81;22015;-81
2023/10/28 15:34:56;;;;;;;2.92;1.35;;;;;;;21.25;38.21;98945.54;1749426;81;21331;-81
2023/10/28 15:38:03;;;;;;;6.67;1.22;;;;;;;21.14;38.36;98952.23;1756386;81;21949;-81
2023/10/28 15:41:09;;;;;;;3.58;1.35;;;;;;;20.94;38.58;98954.45;1757689;81;21370;-81
2023/10/28 15:44:15;;;;;;;2.80;1.52;;;;;;;21.03;38.54;98963.91;1755159;81;21374;-81
2023/10/28 15:47:20;;;;;;;4.50;1.20;;;;;;;21.27;38.13;98963.36;1755765;81;21355;-81
2023/10/28 15:50:25;;;;;;;5.42;1.20;;;;;;;21.10;38.23;98959.45;1744822;81;21348;-81
2023/10/28 15:53:34;;;;;;;2.02;1.22;;;;;;;21.13;38.32;98971.42;1753080;81;21311;-81
2023/10/28 15:56:40;;;;;;;8.65;1.82;;;;;;;21.26;38.30;98982.52;1754918;81;21370;-81
2023/10/28 15:59:47;;;;;;;3.45;1.40;;;;;;;21.30;38.10;98979.46;1755273;81;21342;-81
2023/10/28 16:02:54;;;;;;;3.55;1.40;;;;;;;21.26;38.12;98986.69;1739570;81;21346;-81
2023/10/28 16:06:01;;;;;;;6.17;1.77;;;;;;;21.05;38.45;98995.03;1764098;81;21339;-81
2023/10/28 16:09:07;;;;;;;3.58;1.70;;;;;;;20.95;38.66;98997.80;1761364;81;21331;-81
2023/10/28 16:12:16;;;;;;;3.77;1.50;;;;;;;20.54;39.50;99010.20;1730021;81;21888;-83
2023/10/28 16:15:22;;;;;;;4.42;1.52;;;;;;;20.85;39.17;99008.91;1737966;81;21314;-83
2023/10/28 16:18:36;;;;;;;4.58;1.62;;;;;;;20.74;39.14;99011.38;1749648;81;21311;-83
2023/10/28 16:21:42;;;;;;;3.65;1.55;;;;;;;20.56;39.44;99014.95;1757206;80;21289;-82
2023/10/28 16:24:49;;;;;;;2.50;1.52;;;;;;;20.66;39.39;99012.76;1740701;80;21320;-80
2023/10/28 16:27:57;;;;;;;3.98;1.72;;;;;;;20.63;39.28;99012.73;1714357;83;21862;-82
2023/10/28 16:31:06;;;;;;;3.72;1.62;;;;;;;20.70;39.19;99019.97;1728521;81;22591;-82
2023/10/28 16:34:16;;;;;;;4.60;1.77;;;;;;;20.56;39.23;99016.34;1740976;81;21315;-82
2023/10/28 16:37:25;;;;;;;4.60;1.90;;;;;;;20.40;39.37;99018.73;1728572;82;21846;-81